sensor_id;sensor_type;location;lat;lon;timestamp;P1;durP1;ratioP1;P2;durP2;ratioP2
7195;SDS011;3639;51.308;5.624;2023-05-10T00:00:52;34.67;;;15.20;;
7195;SDS011;3639;51.308;5.624;2023-05-10T00:03:17;29.90;;;14.37;;
7195;SDS011;3639;51.308;5.624;2023-05-10T00:05:43;29.77;;;14.33;;
7195;SDS011;3639;51.308;5.624;2023-05-10T00:08:08;32.67;;;15.27;;
7195;SDS011;3639;51.308;5.624;2023-05-10T00:10:34;30.80;;;14.27;;
7195;SDS011;3639;51.308;5.624;2023-05-10T00:13:01;29.63;;;13.60;;
7195;SDS011;3639;51.308;5.624;2023-05-10T00:15:26;30.57;;;14.13;;
7195;SDS011;3639;51.308;5.624;2023-05-10T00:17:52;32.73;;;13.80;;
7195;SDS011;3639;51.308;5.624;2023-05-10T00:20:17;28.83;;;13.33;;
7195;SDS011;3639;51.308;5.624;2023-05-10T00:22:43;28.07;;;13.57;;
7195;SDS011;3639;51.308;5.624;2023-05-10T00:25:09;25.83;;;12.47;;
7195;SDS011;3639;51.308;5.624;2023-05-10T00:27:35;27.83;;;12.83;;
7195;SDS011;3639;51.308;5.624;2023-05-10T00:30:00;29.13;;;13.40;;
7195;SDS011;3639;51.308;5.624;2023-05-10T00:32:26;28.13;;;12.87;;
7195;SDS011;3639;51.308;5.624;2023-05-10T00:34:52;21.80;;;10.97;;
7195;SDS011;3639;51.308;5.624;2023-05-10T00:37:17;25.50;;;12.60;;
7195;SDS011;3639;51.308;5.624;2023-05-10T00:39:43;28.53;;;12.47;;
7195;SDS011;3639;51.308;5.624;2023-05-10T00:42:08;22.33;;;11.07;;
7195;SDS011;3639;51.308;5.624;2023-05-10T00:44:34;24.13;;;11.33;;
7195;SDS011;3639;51.308;5.624;2023-05-10T00:46:59;22.80;;;11.30;;
7195;SDS011;3639;51.308;5.624;2023-05-10T00:49:25;21.70;;;10.60;;
7195;SDS011;3639;51.308;5.624;2023-05-10T00:51:51;22.73;;;11.50;;
7195;SDS011;3639;51.308;5.624;2023-05-10T00:54:17;24.07;;;11.67;;
7195;SDS011;3639;51.308;5.624;2023-05-10T00:56:42;26.77;;;11.53;;
7195;SDS011;3639;51.308;5.624;2023-05-10T00:59:13;26.43;;;11.43;;
7195;SDS011;3639;51.308;5.624;2023-05-10T01:01:43;23.73;;;10.93;;
7195;SDS011;3639;51.308;5.624;2023-05-10T01:04:12;20.50;;;10.77;;
7195;SDS011;3639;51.308;5.624;2023-05-10T01:06:39;24.33;;;11.27;;
7195;SDS011;3639;51.308;5.624;2023-05-10T01:09:05;24.97;;;11.63;;
7195;SDS011;3639;51.308;5.624;2023-05-10T01:11:32;22.03;;;11.37;;
7195;SDS011;3639;51.308;5.624;2023-05-10T01:14:02;23.37;;;10.77;;
7195;SDS011;3639;51.308;5.624;2023-05-10T01:16:31;24.33;;;11.87;;
7195;SDS011;3639;51.308;5.624;2023-05-10T01:19:00;27.07;;;12.77;;
7195;SDS011;3639;51.308;5.624;2023-05-10T01:34:42;30.27;;;13.97;;
7195;SDS011;3639;51.308;5.624;2023-05-10T01:37:37;36.87;;;16.13;;
7195;SDS011;3639;51.308;5.624;2023-05-10T01:40:26;32.53;;;15.13;;
7195;SDS011;3639;51.308;5.624;2023-05-10T01:43:00;34.97;;;14.60;;
7195;SDS011;3639;51.308;5.624;2023-05-10T01:45:41;40.20;;;16.47;;
7195;SDS011;3639;51.308;5.624;2023-05-10T01:48:36;34.07;;;15.47;;
7195;SDS011;3639;51.308;5.624;2023-05-10T01:51:05;38.97;;;15.60;;
7195;SDS011;3639;51.308;5.624;2023-05-10T01:53:31;37.23;;;16.97;;
7195;SDS011;3639;51.308;5.624;2023-05-10T01:56:02;40.70;;;17.03;;
7195;SDS011;3639;51.308;5.624;2023-05-10T01:58:32;43.97;;;17.63;;
7195;SDS011;3639;51.308;5.624;2023-05-10T02:00:59;43.03;;;17.53;;
7195;SDS011;3639;51.308;5.624;2023-05-10T02:03:28;35.00;;;17.27;;
7195;SDS011;3639;51.308;5.624;2023-05-10T02:05:57;37.83;;;16.77;;
7195;SDS011;3639;51.308;5.624;2023-05-10T02:08:24;42.53;;;17.90;;
7195;SDS011;3639;51.308;5.624;2023-05-10T02:10:51;37.67;;;18.63;;
7195;SDS011;3639;51.308;5.624;2023-05-10T02:13:20;45.83;;;19.57;;
7195;SDS011;3639;51.308;5.624;2023-05-10T02:15:48;45.77;;;19.83;;
7195;SDS011;3639;51.308;5.624;2023-05-10T02:18:15;42.43;;;19.20;;
7195;SDS011;3639;51.308;5.624;2023-05-10T02:20:43;42.10;;;19.50;;
7195;SDS011;3639;51.308;5.624;2023-05-10T02:23:10;42.63;;;19.00;;
7195;SDS011;3639;51.308;5.624;2023-05-10T02:25:38;49.73;;;19.13;;
7195;SDS011;3639;51.308;5.624;2023-05-10T02:28:05;40.57;;;17.60;;
7195;SDS011;3639;51.308;5.624;2023-05-10T02:30:32;40.40;;;18.40;;
7195;SDS011;3639;51.308;5.624;2023-05-10T02:32:59;38.17;;;17.13;;
7195;SDS011;3639;51.308;5.624;2023-05-10T02:35:28;39.10;;;17.97;;
7195;SDS011;3639;51.308;5.624;2023-05-10T02:37:56;40.80;;;18.53;;
7195;SDS011;3639;51.308;5.624;2023-05-10T02:40:23;43.00;;;17.70;;
7195;SDS011;3639;51.308;5.624;2023-05-10T02:42:50;46.23;;;20.50;;
7195;SDS011;3639;51.308;5.624;2023-05-10T02:45:21;54.97;;;22.80;;
7195;SDS011;3639;51.308;5.624;2023-05-10T02:47:49;46.70;;;20.47;;
7195;SDS011;3639;51.308;5.624;2023-05-10T02:50:15;51.53;;;22.80;;
7195;SDS011;3639;51.308;5.624;2023-05-10T02:52:46;52.83;;;21.57;;
7195;SDS011;3639;51.308;5.624;2023-05-10T02:55:16;46.90;;;20.23;;
7195;SDS011;3639;51.308;5.624;2023-05-10T02:57:48;59.80;;;21.90;;
7195;SDS011;3639;51.308;5.624;2023-05-10T03:00:22;56.17;;;21.73;;
7195;SDS011;3639;51.308;5.624;2023-05-10T03:02:49;52.57;;;21.80;;
7195;SDS011;3639;51.308;5.624;2023-05-10T03:05:16;53.87;;;21.63;;
7195;SDS011;3639;51.308;5.624;2023-05-10T03:07:41;56.27;;;22.33;;
7195;SDS011;3639;51.308;5.624;2023-05-10T03:10:08;61.27;;;25.17;;
7195;SDS011;3639;51.308;5.624;2023-05-10T03:15:13;57.40;;;23.63;;
7195;SDS011;3639;51.308;5.624;2023-05-10T03:20:59;63.97;;;24.00;;
7195;SDS011;3639;51.308;5.624;2023-05-10T03:23:29;60.67;;;21.53;;
7195;SDS011;3639;51.308;5.624;2023-05-10T03:25:59;59.70;;;21.60;;
7195;SDS011;3639;51.308;5.624;2023-05-10T03:28:25;55.23;;;23.33;;
7195;SDS011;3639;51.308;5.624;2023-05-10T03:30:54;60.13;;;22.07;;
7195;SDS011;3639;51.308;5.624;2023-05-10T03:33:21;57.67;;;22.83;;
7195;SDS011;3639;51.308;5.624;2023-05-10T03:35:47;56.90;;;21.43;;
7195;SDS011;3639;51.308;5.624;2023-05-10T03:38:13;58.63;;;20.93;;
7195;SDS011;3639;51.308;5.624;2023-05-10T03:40:38;53.90;;;19.03;;
7195;SDS011;3639;51.308;5.624;2023-05-10T03:43:04;55.80;;;19.80;;
7195;SDS011;3639;51.308;5.624;2023-05-10T03:45:30;53.63;;;19.73;;
7195;SDS011;3639;51.308;5.624;2023-05-10T03:47:56;52.77;;;20.87;;
7195;SDS011;3639;51.308;5.624;2023-05-10T03:50:22;50.80;;;19.93;;
7195;SDS011;3639;51.308;5.624;2023-05-10T03:52:48;54.37;;;21.03;;
7195;SDS011;3639;51.308;5.624;2023-05-10T03:55:14;50.83;;;20.93;;
7195;SDS011;3639;51.308;5.624;2023-05-10T03:57:40;57.50;;;21.33;;
7195;SDS011;3639;51.308;5.624;2023-05-10T04:00:05;54.53;;;20.87;;
7195;SDS011;3639;51.308;5.624;2023-05-10T04:02:31;61.37;;;21.40;;
7195;SDS011;3639;51.308;5.624;2023-05-10T04:04:57;54.53;;;21.23;;
7195;SDS011;3639;51.308;5.624;2023-05-10T04:07:23;47.57;;;19.90;;
7195;SDS011;3639;51.308;5.624;2023-05-10T04:09:48;57.73;;;19.67;;
7195;SDS011;3639;51.308;5.624;2023-05-10T04:12:14;59.37;;;21.03;;
7195;SDS011;3639;51.308;5.624;2023-05-10T04:14:39;47.47;;;18.50;;
7195;SDS011;3639;51.308;5.624;2023-05-10T04:17:05;53.07;;;20.17;;
7195;SDS011;3639;51.308;5.624;2023-05-10T04:19:31;63.07;;;21.27;;
7195;SDS011;3639;51.308;5.624;2023-05-10T04:21:57;48.10;;;18.33;;
7195;SDS011;3639;51.308;5.624;2023-05-10T04:24:23;52.03;;;19.20;;
7195;SDS011;3639;51.308;5.624;2023-05-10T04:26:49;53.57;;;20.60;;
7195;SDS011;3639;51.308;5.624;2023-05-10T04:29:15;54.30;;;20.00;;
7195;SDS011;3639;51.308;5.624;2023-05-10T04:31:41;50.27;;;17.90;;
7195;SDS011;3639;51.308;5.624;2023-05-10T04:34:06;46.40;;;18.13;;
7195;SDS011;3639;51.308;5.624;2023-05-10T04:36:32;44.10;;;17.87;;
7195;SDS011;3639;51.308;5.624;2023-05-10T04:39:00;51.57;;;19.07;;
7195;SDS011;3639;51.308;5.624;2023-05-10T04:41:27;51.20;;;18.70;;
7195;SDS011;3639;51.308;5.624;2023-05-10T04:43:53;44.03;;;18.00;;
7195;SDS011;3639;51.308;5.624;2023-05-10T04:46:19;51.60;;;17.90;;
7195;SDS011;3639;51.308;5.624;2023-05-10T04:48:44;51.70;;;19.33;;
7195;SDS011;3639;51.308;5.624;2023-05-10T04:51:10;40.17;;;17.97;;
7195;SDS011;3639;51.308;5.624;2023-05-10T04:53:36;45.97;;;17.93;;
7195;SDS011;3639;51.308;5.624;2023-05-10T04:56:01;47.20;;;18.40;;
7195;SDS011;3639;51.308;5.624;2023-05-10T04:58:27;43.37;;;18.20;;
7195;SDS011;3639;51.308;5.624;2023-05-10T05:00:53;44.63;;;19.37;;
7195;SDS011;3639;51.308;5.624;2023-05-10T05:03:18;46.93;;;18.90;;
7195;SDS011;3639;51.308;5.624;2023-05-10T05:05:44;42.07;;;17.43;;
7195;SDS011;3639;51.308;5.624;2023-05-10T05:08:10;43.13;;;18.23;;
7195;SDS011;3639;51.308;5.624;2023-05-10T05:10:35;40.77;;;18.00;;
7195;SDS011;3639;51.308;5.624;2023-05-10T05:13:01;48.43;;;18.63;;
7195;SDS011;3639;51.308;5.624;2023-05-10T05:15:26;41.27;;;17.77;;
7195;SDS011;3639;51.308;5.624;2023-05-10T05:17:52;49.50;;;18.60;;
7195;SDS011;3639;51.308;5.624;2023-05-10T05:20:18;43.50;;;18.37;;
7195;SDS011;3639;51.308;5.624;2023-05-10T05:22:44;42.57;;;17.77;;
7195;SDS011;3639;51.308;5.624;2023-05-10T05:25:09;43.57;;;18.43;;
7195;SDS011;3639;51.308;5.624;2023-05-10T05:27:36;45.30;;;19.33;;
7195;SDS011;3639;51.308;5.624;2023-05-10T05:30:02;40.57;;;17.27;;
7195;SDS011;3639;51.308;5.624;2023-05-10T05:32:28;47.43;;;20.73;;
7195;SDS011;3639;51.308;5.624;2023-05-10T05:34:53;43.37;;;19.27;;
7195;SDS011;3639;51.308;5.624;2023-05-10T05:37:20;46.73;;;19.77;;
7195;SDS011;3639;51.308;5.624;2023-05-10T05:39:46;48.10;;;20.10;;
7195;SDS011;3639;51.308;5.624;2023-05-10T05:42:13;47.40;;;19.83;;
7195;SDS011;3639;51.308;5.624;2023-05-10T05:44:38;50.57;;;18.83;;
7195;SDS011;3639;51.308;5.624;2023-05-10T05:47:04;42.10;;;20.23;;
7195;SDS011;3639;51.308;5.624;2023-05-10T05:49:31;43.97;;;20.50;;
7195;SDS011;3639;51.308;5.624;2023-05-10T05:52:00;41.90;;;17.97;;
7195;SDS011;3639;51.308;5.624;2023-05-10T05:54:26;43.47;;;18.40;;
7195;SDS011;3639;51.308;5.624;2023-05-10T05:56:59;41.47;;;19.23;;
7195;SDS011;3639;51.308;5.624;2023-05-10T05:59:25;39.03;;;16.30;;
7195;SDS011;3639;51.308;5.624;2023-05-10T06:01:51;35.83;;;16.10;;
7195;SDS011;3639;51.308;5.624;2023-05-10T06:04:17;37.33;;;15.13;;
7195;SDS011;3639;51.308;5.624;2023-05-10T06:06:43;28.63;;;14.67;;
7195;SDS011;3639;51.308;5.624;2023-05-10T06:09:09;29.70;;;15.27;;
7195;SDS011;3639;51.308;5.624;2023-05-10T06:11:35;30.80;;;15.47;;
7195;SDS011;3639;51.308;5.624;2023-05-10T06:14:01;30.97;;;16.33;;
7195;SDS011;3639;51.308;5.624;2023-05-10T06:16:29;29.60;;;13.27;;
7195;SDS011;3639;51.308;5.624;2023-05-10T06:18:55;29.97;;;13.60;;
7195;SDS011;3639;51.308;5.624;2023-05-10T06:21:21;31.97;;;14.33;;
7195;SDS011;3639;51.308;5.624;2023-05-10T06:23:46;27.87;;;13.80;;
7195;SDS011;3639;51.308;5.624;2023-05-10T06:26:12;28.13;;;14.57;;
7195;SDS011;3639;51.308;5.624;2023-05-10T06:28:38;30.67;;;14.20;;
7195;SDS011;3639;51.308;5.624;2023-05-10T06:31:04;23.57;;;13.10;;
7195;SDS011;3639;51.308;5.624;2023-05-10T06:33:31;29.50;;;14.67;;
7195;SDS011;3639;51.308;5.624;2023-05-10T06:35:57;32.47;;;15.07;;
7195;SDS011;3639;51.308;5.624;2023-05-10T06:38:22;34.53;;;15.67;;
7195;SDS011;3639;51.308;5.624;2023-05-10T06:40:48;33.87;;;15.43;;
7195;SDS011;3639;51.308;5.624;2023-05-10T06:43:14;30.97;;;14.90;;
7195;SDS011;3639;51.308;5.624;2023-05-10T06:45:39;31.53;;;14.93;;
7195;SDS011;3639;51.308;5.624;2023-05-10T06:48:06;30.33;;;14.80;;
7195;SDS011;3639;51.308;5.624;2023-05-10T06:50:31;33.00;;;14.83;;
7195;SDS011;3639;51.308;5.624;2023-05-10T06:52:58;29.13;;;15.07;;
7195;SDS011;3639;51.308;5.624;2023-05-10T06:55:24;31.10;;;14.83;;
7195;SDS011;3639;51.308;5.624;2023-05-10T06:57:49;30.93;;;14.53;;
7195;SDS011;3639;51.308;5.624;2023-05-10T07:00:15;31.03;;;14.90;;
7195;SDS011;3639;51.308;5.624;2023-05-10T07:02:42;27.60;;;13.43;;
7195;SDS011;3639;51.308;5.624;2023-05-10T07:05:07;31.60;;;14.30;;
7195;SDS011;3639;51.308;5.624;2023-05-10T07:07:33;29.30;;;14.37;;
7195;SDS011;3639;51.308;5.624;2023-05-10T07:09:59;28.83;;;14.67;;
7195;SDS011;3639;51.308;5.624;2023-05-10T07:12:25;29.60;;;14.17;;
7195;SDS011;3639;51.308;5.624;2023-05-10T07:14:51;29.10;;;14.13;;
7195;SDS011;3639;51.308;5.624;2023-05-10T07:17:16;32.37;;;14.33;;
7195;SDS011;3639;51.308;5.624;2023-05-10T07:19:42;26.97;;;14.10;;
7195;SDS011;3639;51.308;5.624;2023-05-10T07:22:08;24.93;;;13.17;;
7195;SDS011;3639;51.308;5.624;2023-05-10T07:24:33;22.57;;;12.13;;
7195;SDS011;3639;51.308;5.624;2023-05-10T07:27:00;19.20;;;12.17;;
7195;SDS011;3639;51.308;5.624;2023-05-10T07:29:26;22.17;;;13.00;;
7195;SDS011;3639;51.308;5.624;2023-05-10T07:31:51;22.37;;;12.07;;
7195;SDS011;3639;51.308;5.624;2023-05-10T07:34:17;25.63;;;13.50;;
7195;SDS011;3639;51.308;5.624;2023-05-10T07:36:43;28.97;;;13.47;;
7195;SDS011;3639;51.308;5.624;2023-05-10T07:39:09;24.70;;;13.10;;
7195;SDS011;3639;51.308;5.624;2023-05-10T07:41:34;23.77;;;12.33;;
7195;SDS011;3639;51.308;5.624;2023-05-10T07:44:00;23.77;;;12.00;;
7195;SDS011;3639;51.308;5.624;2023-05-10T07:46:25;24.00;;;11.80;;
7195;SDS011;3639;51.308;5.624;2023-05-10T07:48:51;20.07;;;10.53;;
7195;SDS011;3639;51.308;5.624;2023-05-10T07:51:17;20.60;;;11.10;;
7195;SDS011;3639;51.308;5.624;2023-05-10T07:53:42;18.00;;;10.33;;
7195;SDS011;3639;51.308;5.624;2023-05-10T07:58:52;17.00;;;9.57;;
7195;SDS011;3639;51.308;5.624;2023-05-10T08:01:18;18.07;;;8.93;;
7195;SDS011;3639;51.308;5.624;2023-05-10T08:03:44;13.57;;;8.73;;
7195;SDS011;3639;51.308;5.624;2023-05-10T08:06:10;19.73;;;8.83;;
7195;SDS011;3639;51.308;5.624;2023-05-10T08:08:36;18.00;;;8.77;;
7195;SDS011;3639;51.308;5.624;2023-05-10T08:11:01;15.70;;;8.70;;
7195;SDS011;3639;51.308;5.624;2023-05-10T08:13:27;19.10;;;9.70;;
7195;SDS011;3639;51.308;5.624;2023-05-10T08:15:52;17.03;;;9.17;;
7195;SDS011;3639;51.308;5.624;2023-05-10T08:18:18;16.03;;;9.13;;
7195;SDS011;3639;51.308;5.624;2023-05-10T08:20:44;16.33;;;9.23;;
7195;SDS011;3639;51.308;5.624;2023-05-10T08:23:11;16.50;;;9.50;;
7195;SDS011;3639;51.308;5.624;2023-05-10T08:25:37;18.37;;;9.40;;
7195;SDS011;3639;51.308;5.624;2023-05-10T08:28:03;14.77;;;8.30;;
7195;SDS011;3639;51.308;5.624;2023-05-10T08:30:29;13.93;;;8.50;;
7195;SDS011;3639;51.308;5.624;2023-05-10T08:32:55;11.77;;;8.27;;
7195;SDS011;3639;51.308;5.624;2023-05-10T08:35:20;14.60;;;9.23;;
7195;SDS011;3639;51.308;5.624;2023-05-10T08:37:46;17.43;;;9.73;;
7195;SDS011;3639;51.308;5.624;2023-05-10T08:40:11;18.37;;;10.83;;
7195;SDS011;3639;51.308;5.624;2023-05-10T08:42:39;19.23;;;9.30;;
7195;SDS011;3639;51.308;5.624;2023-05-10T08:45:08;15.27;;;9.47;;
7195;SDS011;3639;51.308;5.624;2023-05-10T08:47:38;16.53;;;10.03;;
7195;SDS011;3639;51.308;5.624;2023-05-10T08:50:04;18.73;;;10.97;;
7195;SDS011;3639;51.308;5.624;2023-05-10T08:52:31;15.53;;;9.30;;
7195;SDS011;3639;51.308;5.624;2023-05-10T08:55:01;21.00;;;9.97;;
7195;SDS011;3639;51.308;5.624;2023-05-10T08:57:28;14.10;;;9.43;;
7195;SDS011;3639;51.308;5.624;2023-05-10T08:59:53;17.03;;;9.97;;
7195;SDS011;3639;51.308;5.624;2023-05-10T09:02:19;16.83;;;9.23;;
7195;SDS011;3639;51.308;5.624;2023-05-10T09:04:46;16.37;;;9.47;;
7195;SDS011;3639;51.308;5.624;2023-05-10T09:07:11;16.30;;;8.97;;
7195;SDS011;3639;51.308;5.624;2023-05-10T09:09:37;17.00;;;8.97;;
7195;SDS011;3639;51.308;5.624;2023-05-10T09:12:03;15.53;;;9.33;;
7195;SDS011;3639;51.308;5.624;2023-05-10T09:14:29;12.87;;;8.63;;
7195;SDS011;3639;51.308;5.624;2023-05-10T09:16:57;14.53;;;8.37;;
7195;SDS011;3639;51.308;5.624;2023-05-10T09:19:23;13.73;;;8.50;;
7195;SDS011;3639;51.308;5.624;2023-05-10T09:21:49;16.37;;;8.30;;
7195;SDS011;3639;51.308;5.624;2023-05-10T09:24:14;12.93;;;7.73;;
7195;SDS011;3639;51.308;5.624;2023-05-10T09:26:47;14.17;;;7.60;;
7195;SDS011;3639;51.308;5.624;2023-05-10T09:29:13;10.97;;;7.20;;
7195;SDS011;3639;51.308;5.624;2023-05-10T09:31:43;9.97;;;6.73;;
7195;SDS011;3639;51.308;5.624;2023-05-10T09:34:12;8.63;;;6.47;;
7195;SDS011;3639;51.308;5.624;2023-05-10T09:36:55;9.07;;;6.50;;
7195;SDS011;3639;51.308;5.624;2023-05-10T09:39:35;9.20;;;6.87;;
7195;SDS011;3639;51.308;5.624;2023-05-10T09:42:05;9.93;;;6.33;;
7195;SDS011;3639;51.308;5.624;2023-05-10T09:44:32;14.47;;;6.90;;
7195;SDS011;3639;51.308;5.624;2023-05-10T09:46:59;9.67;;;6.43;;
7195;SDS011;3639;51.308;5.624;2023-05-10T09:49:26;10.77;;;6.97;;
7195;SDS011;3639;51.308;5.624;2023-05-10T09:52:01;8.23;;;5.77;;
7195;SDS011;3639;51.308;5.624;2023-05-10T09:54:31;9.03;;;6.07;;
7195;SDS011;3639;51.308;5.624;2023-05-10T09:56:58;9.47;;;5.20;;
7195;SDS011;3639;51.308;5.624;2023-05-10T09:59:27;7.00;;;5.07;;
7195;SDS011;3639;51.308;5.624;2023-05-10T10:01:57;7.90;;;4.53;;
7195;SDS011;3639;51.308;5.624;2023-05-10T10:04:24;7.27;;;4.53;;
7195;SDS011;3639;51.308;5.624;2023-05-10T10:07:00;5.80;;;4.17;;
7195;SDS011;3639;51.308;5.624;2023-05-10T10:09:27;4.23;;;3.60;;
7195;SDS011;3639;51.308;5.624;2023-05-10T10:11:53;7.87;;;4.60;;
7195;SDS011;3639;51.308;5.624;2023-05-10T10:14:19;5.53;;;3.83;;
7195;SDS011;3639;51.308;5.624;2023-05-10T10:16:46;4.97;;;3.33;;
7195;SDS011;3639;51.308;5.624;2023-05-10T10:19:12;4.70;;;3.33;;
7195;SDS011;3639;51.308;5.624;2023-05-10T10:21:38;5.37;;;3.37;;
7195;SDS011;3639;51.308;5.624;2023-05-10T10:24:03;5.60;;;4.10;;
7195;SDS011;3639;51.308;5.624;2023-05-10T10:26:30;6.57;;;5.13;;
7195;SDS011;3639;51.308;5.624;2023-05-10T10:35:02;10.37;;;7.60;;
7195;SDS011;3639;51.308;5.624;2023-05-10T10:37:44;12.17;;;7.77;;
7195;SDS011;3639;51.308;5.624;2023-05-10T10:42:50;15.70;;;9.97;;
7195;SDS011;3639;51.308;5.624;2023-05-10T10:45:16;15.80;;;9.77;;
7195;SDS011;3639;51.308;5.624;2023-05-10T10:47:42;17.33;;;10.47;;
7195;SDS011;3639;51.308;5.624;2023-05-10T10:50:10;15.40;;;10.77;;
7195;SDS011;3639;51.308;5.624;2023-05-10T10:52:40;18.00;;;11.47;;
7195;SDS011;3639;51.308;5.624;2023-05-10T11:00:24;17.83;;;11.90;;
7195;SDS011;3639;51.308;5.624;2023-05-10T11:05:22;17.00;;;12.13;;
7195;SDS011;3639;51.308;5.624;2023-05-10T11:07:52;24.53;;;12.83;;
7195;SDS011;3639;51.308;5.624;2023-05-10T11:10:22;20.67;;;12.73;;
7195;SDS011;3639;51.308;5.624;2023-05-10T11:12:51;23.43;;;13.03;;
7195;SDS011;3639;51.308;5.624;2023-05-10T11:15:19;20.43;;;11.70;;
7195;SDS011;3639;51.308;5.624;2023-05-10T11:17:45;20.77;;;11.80;;
7195;SDS011;3639;51.308;5.624;2023-05-10T11:20:16;16.93;;;10.43;;
7195;SDS011;3639;51.308;5.624;2023-05-10T11:22:54;19.80;;;11.97;;
7195;SDS011;3639;51.308;5.624;2023-05-10T11:25:19;18.40;;;11.00;;
7195;SDS011;3639;51.308;5.624;2023-05-10T11:27:51;16.13;;;10.30;;
7195;SDS011;3639;51.308;5.624;2023-05-10T11:30:17;16.60;;;9.90;;
7195;SDS011;3639;51.308;5.624;2023-05-10T11:32:42;14.77;;;9.40;;
7195;SDS011;3639;51.308;5.624;2023-05-10T11:35:09;18.20;;;10.13;;
7195;SDS011;3639;51.308;5.624;2023-05-10T11:37:36;16.17;;;10.20;;
7195;SDS011;3639;51.308;5.624;2023-05-10T11:40:06;14.43;;;9.87;;
7195;SDS011;3639;51.308;5.624;2023-05-10T11:42:35;16.97;;;10.43;;
7195;SDS011;3639;51.308;5.624;2023-05-10T11:45:04;15.93;;;10.03;;
7195;SDS011;3639;51.308;5.624;2023-05-10T11:47:30;18.10;;;10.80;;
7195;SDS011;3639;51.308;5.624;2023-05-10T11:49:56;18.87;;;9.93;;
7195;SDS011;3639;51.308;5.624;2023-05-10T11:52:22;17.60;;;9.37;;
7195;SDS011;3639;51.308;5.624;2023-05-10T11:54:52;15.03;;;9.47;;
7195;SDS011;3639;51.308;5.624;2023-05-10T11:57:19;15.37;;;9.80;;
7195;SDS011;3639;51.308;5.624;2023-05-10T11:59:47;14.50;;;9.63;;
7195;SDS011;3639;51.308;5.624;2023-05-10T12:02:18;13.57;;;8.83;;
7195;SDS011;3639;51.308;5.624;2023-05-10T12:04:44;13.13;;;8.97;;
7195;SDS011;3639;51.308;5.624;2023-05-10T12:07:10;14.77;;;9.30;;
7195;SDS011;3639;51.308;5.624;2023-05-10T12:09:35;12.67;;;8.73;;
7195;SDS011;3639;51.308;5.624;2023-05-10T12:12:01;18.37;;;9.43;;
7195;SDS011;3639;51.308;5.624;2023-05-10T12:14:27;12.87;;;8.63;;
7195;SDS011;3639;51.308;5.624;2023-05-10T12:16:53;13.17;;;8.77;;
7195;SDS011;3639;51.308;5.624;2023-05-10T12:19:21;14.07;;;9.53;;
7195;SDS011;3639;51.308;5.624;2023-05-10T12:21:47;16.17;;;9.20;;
7195;SDS011;3639;51.308;5.624;2023-05-10T12:24:13;13.00;;;8.60;;
7195;SDS011;3639;51.308;5.624;2023-05-10T12:26:42;12.90;;;8.50;;
7195;SDS011;3639;51.308;5.624;2023-05-10T12:29:17;12.43;;;7.63;;
7195;SDS011;3639;51.308;5.624;2023-05-10T12:31:53;12.47;;;7.70;;
7195;SDS011;3639;51.308;5.624;2023-05-10T12:34:29;12.20;;;7.90;;
7195;SDS011;3639;51.308;5.624;2023-05-10T12:36:56;13.90;;;8.27;;
7195;SDS011;3639;51.308;5.624;2023-05-10T12:39:22;14.13;;;7.30;;
7195;SDS011;3639;51.308;5.624;2023-05-10T12:41:48;13.43;;;8.23;;
7195;SDS011;3639;51.308;5.624;2023-05-10T12:44:13;14.30;;;8.20;;
7195;SDS011;3639;51.308;5.624;2023-05-10T12:46:39;10.97;;;7.90;;
7195;SDS011;3639;51.308;5.624;2023-05-10T12:49:04;14.43;;;7.87;;
7195;SDS011;3639;51.308;5.624;2023-05-10T12:51:30;15.43;;;7.63;;
7195;SDS011;3639;51.308;5.624;2023-05-10T12:53:56;12.47;;;7.90;;
7195;SDS011;3639;51.308;5.624;2023-05-10T12:56:21;12.80;;;7.60;;
7195;SDS011;3639;51.308;5.624;2023-05-10T12:58:47;13.00;;;7.90;;
7195;SDS011;3639;51.308;5.624;2023-05-10T13:01:13;11.07;;;7.00;;
7195;SDS011;3639;51.308;5.624;2023-05-10T13:03:39;12.73;;;7.60;;
7195;SDS011;3639;51.308;5.624;2023-05-10T13:06:05;11.90;;;7.60;;
7195;SDS011;3639;51.308;5.624;2023-05-10T13:08:31;13.60;;;6.63;;
7195;SDS011;3639;51.308;5.624;2023-05-10T13:10:58;11.70;;;6.80;;
7195;SDS011;3639;51.308;5.624;2023-05-10T13:13:25;10.10;;;7.70;;
7195;SDS011;3639;51.308;5.624;2023-05-10T13:15:51;14.27;;;7.60;;
7195;SDS011;3639;51.308;5.624;2023-05-10T13:18:16;12.50;;;7.37;;
7195;SDS011;3639;51.308;5.624;2023-05-10T13:20:42;14.30;;;7.57;;
7195;SDS011;3639;51.308;5.624;2023-05-10T13:23:09;17.00;;;8.37;;
7195;SDS011;3639;51.308;5.624;2023-05-10T13:25:35;15.57;;;8.87;;
7195;SDS011;3639;51.308;5.624;2023-05-10T13:28:01;17.50;;;9.43;;
7195;SDS011;3639;51.308;5.624;2023-05-10T13:30:26;17.53;;;9.23;;
7195;SDS011;3639;51.308;5.624;2023-05-10T13:32:53;14.17;;;9.00;;
7195;SDS011;3639;51.308;5.624;2023-05-10T13:35:19;15.37;;;8.77;;
7195;SDS011;3639;51.308;5.624;2023-05-10T13:37:45;16.23;;;9.70;;
7195;SDS011;3639;51.308;5.624;2023-05-10T13:40:10;14.70;;;8.83;;
7195;SDS011;3639;51.308;5.624;2023-05-10T13:42:36;14.97;;;8.43;;
7195;SDS011;3639;51.308;5.624;2023-05-10T13:45:02;12.37;;;7.97;;
7195;SDS011;3639;51.308;5.624;2023-05-10T13:47:28;11.27;;;7.57;;
7195;SDS011;3639;51.308;5.624;2023-05-10T13:49:54;11.40;;;7.40;;
7195;SDS011;3639;51.308;5.624;2023-05-10T13:52:19;13.63;;;6.93;;
7195;SDS011;3639;51.308;5.624;2023-05-10T13:54:45;11.00;;;7.17;;
7195;SDS011;3639;51.308;5.624;2023-05-10T13:57:11;11.03;;;7.10;;
7195;SDS011;3639;51.308;5.624;2023-05-10T13:59:38;13.63;;;7.80;;
7195;SDS011;3639;51.308;5.624;2023-05-10T14:02:04;12.20;;;7.23;;
7195;SDS011;3639;51.308;5.624;2023-05-10T14:04:30;13.30;;;7.60;;
7195;SDS011;3639;51.308;5.624;2023-05-10T14:06:56;12.63;;;7.47;;
7195;SDS011;3639;51.308;5.624;2023-05-10T14:09:22;11.60;;;7.63;;
7195;SDS011;3639;51.308;5.624;2023-05-10T14:11:47;14.53;;;7.47;;
7195;SDS011;3639;51.308;5.624;2023-05-10T14:14:13;11.00;;;6.93;;
7195;SDS011;3639;51.308;5.624;2023-05-10T14:16:41;10.53;;;7.17;;
7195;SDS011;3639;51.308;5.624;2023-05-10T14:19:08;11.03;;;7.10;;
7195;SDS011;3639;51.308;5.624;2023-05-10T14:21:34;11.37;;;6.57;;
7195;SDS011;3639;51.308;5.624;2023-05-10T14:23:59;9.87;;;7.00;;
7195;SDS011;3639;51.308;5.624;2023-05-10T14:26:25;8.03;;;6.07;;
7195;SDS011;3639;51.308;5.624;2023-05-10T14:28:51;11.27;;;7.73;;
7195;SDS011;3639;51.308;5.624;2023-05-10T14:31:16;11.90;;;7.87;;
7195;SDS011;3639;51.308;5.624;2023-05-10T14:33:44;11.63;;;8.23;;
7195;SDS011;3639;51.308;5.624;2023-05-10T14:36:10;13.73;;;10.27;;
7195;SDS011;3639;51.308;5.624;2023-05-10T14:38:35;11.67;;;8.70;;
7195;SDS011;3639;51.308;5.624;2023-05-10T14:41:01;12.33;;;9.37;;
7195;SDS011;3639;51.308;5.624;2023-05-10T14:43:26;13.87;;;9.23;;
7195;SDS011;3639;51.308;5.624;2023-05-10T14:45:53;12.27;;;8.87;;
7195;SDS011;3639;51.308;5.624;2023-05-10T14:48:18;13.27;;;8.53;;
7195;SDS011;3639;51.308;5.624;2023-05-10T14:50:44;13.10;;;7.70;;
7195;SDS011;3639;51.308;5.624;2023-05-10T14:53:10;14.40;;;8.13;;
7195;SDS011;3639;51.308;5.624;2023-05-10T14:55:36;12.97;;;8.07;;
7195;SDS011;3639;51.308;5.624;2023-05-10T14:58:03;8.53;;;6.37;;
7195;SDS011;3639;51.308;5.624;2023-05-10T15:00:28;9.17;;;6.37;;
7195;SDS011;3639;51.308;5.624;2023-05-10T15:02:55;8.87;;;5.77;;
7195;SDS011;3639;51.308;5.624;2023-05-10T15:05:20;9.67;;;5.83;;
7195;SDS011;3639;51.308;5.624;2023-05-10T15:07:46;8.77;;;5.90;;
7195;SDS011;3639;51.308;5.624;2023-05-10T15:10:11;7.30;;;6.37;;
7195;SDS011;3639;51.308;5.624;2023-05-10T15:12:37;8.83;;;6.53;;
7195;SDS011;3639;51.308;5.624;2023-05-10T15:15:04;9.03;;;6.30;;
7195;SDS011;3639;51.308;5.624;2023-05-10T15:17:30;10.03;;;5.97;;
7195;SDS011;3639;51.308;5.624;2023-05-10T15:19:56;9.20;;;4.63;;
7195;SDS011;3639;51.308;5.624;2023-05-10T15:22:21;7.97;;;5.30;;
7195;SDS011;3639;51.308;5.624;2023-05-10T15:24:47;5.90;;;4.57;;
7195;SDS011;3639;51.308;5.624;2023-05-10T15:27:13;7.37;;;4.47;;
7195;SDS011;3639;51.308;5.624;2023-05-10T15:29:38;6.23;;;4.57;;
7195;SDS011;3639;51.308;5.624;2023-05-10T15:32:04;5.73;;;4.63;;